Terminal Aerodrome Forecast
Issued by NWS

Home | Current Version | Previous Version | Text Only | Print | Product List | Glossary Off
Versions: 1 2 3 4 5 6 7 8 9 10 11 12 13 14 15 16 17

000
FTUS43 KBIS 250520
TAFMOT
TAF
KMOT 250520Z 2506/2606 01011KT P6SM OVC015
     FM251000 01010KT P6SM OVC008
     FM251600 02015G23KT P6SM OVC015
     FM252200 02014KT P6SM BKN035
     FM260300 02009KT P6SM BKN045=

USA.gov is the U.S. government's official web portal to all federal, state and local government web resources and services.